createdAt,value
2023-04-18T00:01:44.647Z,13.78
2023-04-18T00:04:14.285Z,13.64
2023-04-18T00:06:43.583Z,13.75
2023-04-18T00:09:11.639Z,13.75
2023-04-18T00:11:39.767Z,13.66
2023-04-18T00:14:08.497Z,13.69
2023-04-18T00:16:36.281Z,13.69
2023-04-18T00:19:05.818Z,13.69
2023-04-18T00:21:33.483Z,13.63
2023-04-18T00:24:02.814Z,13.63
2023-04-18T00:26:31.073Z,13.54
2023-04-18T00:28:58.814Z,13.59
2023-04-18T00:31:26.707Z,13.59
2023-04-18T00:33:54.944Z,13.55
2023-04-18T00:36:22.622Z,13.57
2023-04-18T00:38:50.274Z,13.53
2023-04-18T00:41:20.835Z,13.55
2023-04-18T00:43:48.532Z,13.50
2023-04-18T00:46:16.249Z,13.43
2023-04-18T00:48:44.578Z,13.46
2023-04-18T00:51:13.097Z,13.40
2023-04-18T00:53:42.022Z,13.31
2023-04-18T00:56:10.321Z,13.32
2023-04-18T00:58:40.539Z,13.33
2023-04-18T01:01:08.312Z,13.25
2023-04-18T01:06:27.629Z,13.29
2023-04-18T01:08:58.017Z,13.23
2023-04-18T01:11:25.741Z,13.27
2023-04-18T01:14:02.914Z,13.27
2023-04-18T01:16:32.578Z,13.23
2023-04-18T01:19:00.252Z,13.27
2023-04-18T01:21:34.536Z,13.18
2023-04-18T01:24:09.477Z,13.19
2023-04-18T01:26:37.786Z,13.13
2023-04-18T01:29:05.693Z,13.02
2023-04-18T01:31:35.934Z,13.05
2023-04-18T01:34:04.336Z,13.00
2023-04-18T01:36:32.033Z,13.01
2023-04-18T01:38:59.849Z,12.96
2023-04-18T01:41:33.082Z,12.99
2023-04-18T01:44:01.256Z,12.92
2023-04-18T01:46:29.154Z,12.93
2023-04-18T01:48:58.134Z,12.93
2023-04-18T01:51:26.323Z,12.80
2023-04-18T01:53:53.976Z,12.83
2023-04-18T01:56:22.482Z,12.81
2023-04-18T01:58:51.508Z,12.81
2023-04-18T02:01:19.513Z,12.77
2023-04-18T02:03:47.399Z,12.78
2023-04-18T02:06:15.327Z,12.73
2023-04-18T02:08:43.019Z,12.71
2023-04-18T02:11:10.798Z,12.75
2023-04-18T02:13:38.514Z,12.70
2023-04-18T02:16:13.199Z,12.69
2023-04-18T02:18:41.438Z,12.69
2023-04-18T02:21:11.082Z,12.66
2023-04-18T02:23:39.046Z,12.66
2023-04-18T02:26:06.747Z,12.65
2023-04-18T02:28:34.463Z,12.63
2023-04-18T02:31:02.605Z,12.59
2023-04-18T02:33:31.719Z,12.58
2023-04-18T02:35:59.393Z,12.54
2023-04-18T02:38:27.631Z,12.50
2023-04-18T02:40:56.009Z,12.52
2023-04-18T02:43:23.744Z,12.48
2023-04-18T02:45:52.038Z,12.50
2023-04-18T02:48:19.764Z,12.48
2023-04-18T02:50:48.841Z,12.42
2023-04-18T02:53:17.071Z,12.36
2023-04-18T02:55:44.724Z,12.37
2023-04-18T02:58:12.653Z,12.28
2023-04-18T03:00:40.924Z,12.28
2023-04-18T03:03:09.039Z,12.26
2023-04-18T03:05:36.699Z,12.24
2023-04-18T03:08:06.322Z,12.25
2023-04-18T03:10:33.839Z,12.27
2023-04-18T03:13:01.877Z,12.23
2023-04-18T03:15:31.615Z,12.18
2023-04-18T03:18:00.209Z,12.15
2023-04-18T03:20:27.923Z,12.12
2023-04-18T03:22:56.210Z,12.07
2023-04-18T03:25:25.300Z,12.08
2023-04-18T03:27:52.970Z,12.04
2023-04-18T03:30:22.680Z,11.97
2023-04-18T03:32:50.206Z,12.04
2023-04-18T03:35:17.996Z,12.01
2023-04-18T03:37:46.118Z,12.01
2023-04-18T03:40:14.075Z,11.92
2023-04-18T03:42:43.126Z,11.93
2023-04-18T03:45:11.772Z,11.93
2023-04-18T03:47:39.498Z,11.94
2023-04-18T03:50:08.042Z,11.96
2023-04-18T03:52:36.364Z,11.96
2023-04-18T03:55:04.213Z,11.95
2023-04-18T03:57:31.964Z,11.92
2023-04-18T04:00:01.600Z,11.91
2023-04-18T04:02:29.241Z,11.89
2023-04-18T04:04:57.227Z,11.88
2023-04-18T04:07:25.607Z,11.77
2023-04-18T04:09:53.258Z,11.70
2023-04-18T04:12:20.945Z,11.61
2023-04-18T04:14:49.129Z,11.56
2023-04-18T04:17:18.293Z,11.54
2023-04-18T04:19:45.974Z,11.50
2023-04-18T04:22:14.334Z,11.44
2023-04-18T04:24:42.741Z,11.45
2023-04-18T04:27:11.077Z,11.43
2023-04-18T04:29:39.828Z,11.43
2023-04-18T04:32:08.406Z,11.41
2023-04-18T04:34:37.806Z,11.41
2023-04-18T04:37:06.049Z,11.36
2023-04-18T04:39:33.723Z,11.32
2023-04-18T04:42:03.871Z,11.38
2023-04-18T04:44:32.191Z,11.48
2023-04-18T04:47:00.056Z,11.64
2023-04-18T04:49:27.768Z,11.61
2023-04-18T04:51:57.503Z,11.67
2023-04-18T04:54:25.587Z,11.74
2023-04-18T04:56:53.353Z,11.65
2023-04-18T04:59:21.480Z,11.61
2023-04-18T05:01:49.438Z,11.55
2023-04-18T05:04:17.973Z,11.51
2023-04-18T05:06:46.906Z,11.38
2023-04-18T05:09:15.939Z,11.31
2023-04-18T05:11:43.681Z,11.27
2023-04-18T05:14:13.280Z,11.22
2023-04-18T05:16:41.828Z,11.10
2023-04-18T05:19:09.537Z,11.02
2023-04-18T05:21:38.058Z,10.96
2023-04-18T05:24:05.779Z,11.01
2023-04-18T05:26:34.891Z,10.95
2023-04-18T05:29:03.165Z,10.86
2023-04-18T05:31:30.956Z,10.83
2023-04-18T05:33:58.718Z,10.58
2023-04-18T05:36:27.333Z,10.65
2023-04-18T05:38:55.024Z,10.75
2023-04-18T05:41:22.963Z,10.70
2023-04-18T05:44:02.348Z,10.79
2023-04-18T05:46:32.362Z,10.67
2023-04-18T05:49:00.177Z,10.78
2023-04-18T05:51:28.458Z,10.60
2023-04-18T05:53:56.260Z,10.73
2023-04-18T05:56:24.312Z,10.82
2023-04-18T05:58:53.356Z,10.82
2023-04-18T06:01:21.319Z,10.66
2023-04-18T06:03:49.718Z,10.52
2023-04-18T06:06:18.009Z,10.66
2023-04-18T06:08:45.679Z,10.80
2023-04-18T06:11:15.429Z,10.85
2023-04-18T06:13:43.307Z,10.78
2023-04-18T06:16:12.522Z,10.86
2023-04-18T06:18:40.388Z,10.84
2023-04-18T06:21:08.053Z,10.79
2023-04-18T06:23:35.724Z,11.02
2023-04-18T06:26:04.023Z,11.17
2023-04-18T06:28:31.694Z,11.10
2023-04-18T06:30:59.392Z,10.85
2023-04-18T06:33:31.313Z,11.00
2023-04-18T06:35:59.291Z,11.09
2023-04-18T06:38:27.134Z,11.21
2023-04-18T06:40:54.949Z,11.34
2023-04-18T06:43:22.991Z,11.30
2023-04-18T06:45:50.823Z,11.27
2023-04-18T06:48:18.826Z,11.18
2023-04-18T06:50:47.922Z,11.31
2023-04-18T06:53:15.670Z,11.06
2023-04-18T06:55:43.916Z,11.17
2023-04-18T06:58:13.643Z,11.13
2023-04-18T07:00:41.305Z,11.28
2023-04-18T07:03:13.860Z,11.15
2023-04-18T07:05:42.470Z,11.50
2023-04-18T07:08:11.545Z,11.72
2023-04-18T07:10:39.681Z,11.83
2023-04-18T07:13:07.432Z,11.81
2023-04-18T07:15:35.529Z,11.97
2023-04-18T07:18:03.418Z,11.91
2023-04-18T07:20:31.237Z,11.78
2023-04-18T07:22:58.931Z,12.11
2023-04-18T07:25:28.529Z,12.31
2023-04-18T07:27:56.204Z,12.46
2023-04-18T07:30:24.069Z,12.63
2023-04-18T07:32:52.662Z,12.68
2023-04-18T07:35:20.700Z,12.87
2023-04-18T07:37:48.791Z,12.76
2023-04-18T07:40:17.739Z,12.90
2023-04-18T07:42:47.031Z,13.00
2023-04-18T07:45:15.652Z,13.10
2023-04-18T07:47:44.144Z,12.83
2023-04-18T07:50:12.691Z,13.04
2023-04-18T07:52:40.664Z,13.23
2023-04-18T07:55:10.056Z,13.34
2023-04-18T07:57:37.904Z,13.46
2023-04-18T08:00:09.386Z,13.58
2023-04-18T08:02:38.166Z,13.44
2023-04-18T08:05:06.764Z,13.43
2023-04-18T08:07:34.887Z,13.36
2023-04-18T08:10:03.409Z,13.58
2023-04-18T08:12:32.620Z,13.61
2023-04-18T08:15:00.516Z,13.53
2023-04-18T08:17:30.173Z,13.78
2023-04-18T08:19:57.900Z,13.66
2023-04-18T08:22:25.893Z,13.73
2023-04-18T08:25:04.296Z,13.78
2023-04-18T08:27:33.922Z,13.97
2023-04-18T08:30:04.157Z,13.47
2023-04-18T08:32:33.941Z,13.37
2023-04-18T08:35:01.962Z,13.65
2023-04-18T08:37:30.228Z,13.60
2023-04-18T08:39:58.983Z,13.74
2023-04-18T08:42:27.498Z,13.64
2023-04-18T08:44:56.012Z,13.77
2023-04-18T08:47:24.021Z,13.99
2023-04-18T08:49:53.679Z,14.16
2023-04-18T08:52:21.709Z,14.32
2023-04-18T08:54:52.422Z,14.46
2023-04-18T08:57:27.384Z,14.54
2023-04-18T08:59:56.215Z,14.69
2023-04-18T09:02:38.961Z,14.67
2023-04-18T09:05:14.981Z,14.87
2023-04-18T09:07:44.005Z,14.73
2023-04-18T09:10:12.722Z,14.74
2023-04-18T09:12:50.843Z,14.84
2023-04-18T09:15:22.575Z,15.05
2023-04-18T09:17:54.086Z,15.24
2023-04-18T09:20:34.818Z,15.39
2023-04-18T09:23:05.429Z,15.55
2023-04-18T09:25:36.118Z,15.69
2023-04-18T09:28:05.913Z,15.81
2023-04-18T09:30:37.998Z,15.92
2023-04-18T09:33:10.005Z,16.07
2023-04-18T09:35:39.925Z,15.99
2023-04-18T09:38:09.024Z,16.14
2023-04-18T09:40:37.592Z,16.11
2023-04-18T09:43:20.535Z,16.06
2023-04-18T09:45:50.203Z,16.12
2023-04-18T09:48:17.884Z,16.33
2023-04-18T09:50:48.835Z,16.40
2023-04-18T09:53:21.044Z,16.47
2023-04-18T09:55:53.031Z,16.52
2023-04-18T09:58:24.436Z,16.57
2023-04-18T10:00:54.846Z,16.16
2023-04-18T10:03:27.671Z,15.84
2023-04-18T10:06:00.295Z,16.16
2023-04-18T10:08:29.296Z,16.27
2023-04-18T10:10:58.729Z,16.35
2023-04-18T10:13:29.485Z,16.40
2023-04-18T10:15:57.896Z,16.51
2023-04-18T10:18:25.996Z,16.46
2023-04-18T10:21:04.511Z,16.51
2023-04-18T10:23:36.894Z,16.47
2023-04-18T10:26:05.700Z,16.57
2023-04-18T10:28:53.080Z,16.65
2023-04-18T10:31:23.132Z,16.71
2023-04-18T10:34:18.190Z,16.80
2023-04-18T10:37:05.773Z,16.88
2023-04-18T10:39:49.127Z,16.96
2023-04-18T10:42:17.401Z,16.90
2023-04-18T10:44:45.323Z,16.99
2023-04-18T10:47:23.579Z,17.03
2023-04-18T10:49:57.126Z,17.03
2023-04-18T10:52:27.824Z,16.98
2023-04-18T10:55:26.067Z,16.38
2023-04-18T10:57:56.702Z,16.40
2023-04-18T11:00:24.934Z,16.56
2023-04-18T11:02:56.362Z,16.66
2023-04-18T11:05:26.692Z,16.71
2023-04-18T11:07:56.495Z,16.42
2023-04-18T11:10:26.388Z,16.38
2023-04-18T11:12:56.165Z,16.58
2023-04-18T11:15:24.848Z,16.52
2023-04-18T11:18:01.390Z,16.42
2023-04-18T11:20:30.286Z,16.50
2023-04-18T11:23:01.576Z,16.54
2023-04-18T11:25:32.259Z,16.53
2023-04-18T11:28:02.040Z,16.52
2023-04-18T11:30:37.131Z,16.58
2023-04-18T11:33:07.847Z,16.65
2023-04-18T11:35:38.885Z,16.58
2023-04-18T11:38:09.783Z,16.64
2023-04-18T11:40:38.235Z,16.86
2023-04-18T11:43:08.342Z,16.91
2023-04-18T11:45:36.947Z,16.74
2023-04-18T11:48:05.357Z,16.73
2023-04-18T11:50:37.739Z,16.80
2023-04-18T11:53:05.650Z,16.79
2023-04-18T11:55:35.096Z,16.85
2023-04-18T11:58:03.677Z,16.72
2023-04-18T12:00:35.399Z,16.84
2023-04-18T12:03:05.525Z,16.80
2023-04-18T12:05:36.119Z,16.87
2023-04-18T12:08:09.059Z,16.96
2023-04-18T12:10:39.157Z,17.05
2023-04-18T12:13:08.826Z,17.13
2023-04-18T12:15:40.417Z,16.85
2023-04-18T12:18:09.415Z,16.58
2023-04-18T12:20:38.880Z,16.10
2023-04-18T12:23:08.269Z,16.43
2023-04-18T12:25:36.517Z,16.34
2023-04-18T12:28:17.369Z,16.49
2023-04-18T12:30:45.289Z,16.65
2023-04-18T12:33:13.389Z,16.81
2023-04-18T12:35:41.711Z,16.90
2023-04-18T12:38:09.653Z,16.90
2023-04-18T12:40:40.930Z,17.02
2023-04-18T12:43:10.971Z,16.97
2023-04-18T12:45:38.845Z,17.12
2023-04-18T12:48:07.469Z,17.19
2023-04-18T12:50:36.144Z,17.30
2023-04-18T12:53:04.181Z,17.43
2023-04-18T12:55:32.170Z,17.54
2023-04-18T12:58:01.253Z,17.54
2023-04-18T13:00:32.435Z,17.65
2023-04-18T13:03:00.915Z,17.45
2023-04-18T13:05:33.606Z,17.19
2023-04-18T13:08:15.486Z,17.00
2023-04-18T13:10:46.320Z,17.13
2023-04-18T13:13:14.660Z,17.31
2023-04-18T13:15:45.536Z,16.96
2023-04-18T13:18:14.128Z,16.92
2023-04-18T13:20:42.040Z,17.06
2023-04-18T13:23:09.954Z,16.70
2023-04-18T13:25:38.603Z,16.90
2023-04-18T13:28:06.852Z,17.04
2023-04-18T13:30:35.832Z,17.13
2023-04-18T13:33:05.956Z,17.28
2023-04-18T13:35:33.878Z,17.35
2023-04-18T13:38:01.798Z,17.26
2023-04-18T13:40:30.162Z,17.49
2023-04-18T13:42:57.963Z,17.62
2023-04-18T13:45:25.976Z,17.52
2023-04-18T13:47:54.534Z,17.68
2023-04-18T13:50:24.513Z,17.50
2023-04-18T13:52:55.012Z,17.26
2023-04-18T13:55:22.905Z,17.25
2023-04-18T13:57:51.078Z,17.33
2023-04-18T14:00:20.546Z,17.35
2023-04-18T14:02:48.642Z,17.38
2023-04-18T14:05:16.571Z,17.17
2023-04-18T14:07:45.877Z,17.41
2023-04-18T14:10:13.755Z,17.51
2023-04-18T14:12:41.713Z,17.62
2023-04-18T14:15:11.207Z,17.72
2023-04-18T14:17:39.121Z,17.82
2023-04-18T14:20:08.539Z,17.91
2023-04-18T14:22:36.730Z,18.03
2023-04-18T14:25:06.950Z,18.03
2023-04-18T14:27:34.666Z,18.17
2023-04-18T14:30:03.321Z,17.97
2023-04-18T14:32:31.223Z,17.97
2023-04-18T14:34:59.833Z,17.97
2023-04-18T14:37:28.039Z,17.88
2023-04-18T14:39:55.841Z,17.89
2023-04-18T14:42:25.435Z,18.05
2023-04-18T14:44:53.284Z,18.14
2023-04-18T14:47:21.851Z,18.20
2023-04-18T14:49:50.268Z,18.27
2023-04-18T14:52:18.136Z,18.30
2023-04-18T14:54:46.033Z,17.93
2023-04-18T14:57:14.292Z,17.87
2023-04-18T14:59:43.990Z,17.58
2023-04-18T15:02:11.805Z,17.68
2023-04-18T15:04:40.052Z,17.78
2023-04-18T15:07:08.411Z,17.70
2023-04-18T15:09:37.684Z,17.85
2023-04-18T15:12:06.413Z,17.98
2023-04-18T15:14:35.434Z,18.03
2023-04-18T15:17:06.403Z,18.15
2023-04-18T15:19:34.543Z,18.14
2023-04-18T15:22:03.581Z,18.23
2023-04-18T15:24:31.585Z,18.22
2023-04-18T15:26:59.512Z,18.13
2023-04-18T15:29:27.474Z,18.23
2023-04-18T15:31:55.536Z,18.29
2023-04-18T15:34:25.031Z,18.21
2023-04-18T15:36:53.406Z,18.31
2023-04-18T15:39:23.511Z,18.05
2023-04-18T15:41:54.713Z,18.06
2023-04-18T15:44:22.721Z,18.15
2023-04-18T15:46:51.862Z,18.09
2023-04-18T15:49:20.158Z,17.83
2023-04-18T15:51:49.442Z,18.04
2023-04-18T15:54:17.367Z,18.04
2023-04-18T15:59:34.581Z,18.17
2023-04-18T16:04:51.716Z,17.75
2023-04-18T16:07:21.259Z,17.93
2023-04-18T16:09:49.098Z,17.99
2023-04-18T16:12:16.976Z,17.98
2023-04-18T16:14:45.061Z,18.04
2023-04-18T16:17:12.950Z,17.92
2023-04-18T16:19:41.110Z,17.78
2023-04-18T16:22:09.260Z,17.89
2023-04-18T16:24:39.512Z,17.92
2023-04-18T16:27:08.266Z,17.93
2023-04-18T16:29:36.383Z,17.84
2023-04-18T16:32:06.528Z,17.92
2023-04-18T16:34:34.505Z,17.94
2023-04-18T16:37:02.714Z,17.89
2023-04-18T16:39:31.188Z,17.90
2023-04-18T16:42:01.185Z,17.77
2023-04-18T16:44:29.146Z,17.88
2023-04-18T16:46:57.117Z,17.69
2023-04-18T16:49:25.344Z,17.74
2023-04-18T16:51:53.483Z,17.65
2023-04-18T16:54:21.498Z,17.45
2023-04-18T16:56:49.481Z,17.60
2023-04-18T16:59:19.439Z,17.69
2023-04-18T17:01:47.609Z,17.44
2023-04-18T17:04:16.189Z,17.43
2023-04-18T17:06:45.157Z,17.56
2023-04-18T17:09:13.810Z,17.49
2023-04-18T17:11:42.145Z,17.42
2023-04-18T17:14:11.107Z,17.26
2023-04-18T17:16:41.828Z,17.15
2023-04-18T17:19:10.557Z,17.23
2023-04-18T17:21:39.585Z,17.11
2023-04-18T17:24:08.316Z,17.26
2023-04-18T17:26:37.284Z,17.29
2023-04-18T17:29:06.276Z,17.29
2023-04-18T17:31:34.682Z,17.29
2023-04-18T17:34:04.540Z,17.27
2023-04-18T17:36:32.885Z,17.38
2023-04-18T17:39:06.656Z,17.37
2023-04-18T17:41:38.326Z,17.29
2023-04-18T17:44:07.510Z,17.35
2023-04-18T17:46:36.486Z,17.28
2023-04-18T17:49:06.113Z,17.19
2023-04-18T17:51:33.811Z,17.07
2023-04-18T17:54:01.833Z,16.98
2023-04-18T17:56:31.021Z,16.88
2023-04-18T17:58:59.071Z,16.97
2023-04-18T18:01:30.243Z,16.88
2023-04-18T18:03:59.367Z,16.93
2023-04-18T18:06:28.966Z,16.85
2023-04-18T18:08:56.776Z,16.75
2023-04-18T18:11:25.211Z,16.81
2023-04-18T18:13:54.709Z,16.80
2023-04-18T18:16:23.934Z,16.89
2023-04-18T18:18:52.839Z,16.89
2023-04-18T18:21:20.896Z,16.78
2023-04-18T18:23:50.269Z,16.72
2023-04-18T18:26:18.826Z,16.77
2023-04-18T18:28:46.884Z,16.66
2023-04-18T18:31:14.908Z,16.62
2023-04-18T18:33:43.595Z,16.65
2023-04-18T18:36:11.670Z,16.48
2023-04-18T18:38:39.716Z,16.61
2023-04-18T18:41:09.803Z,16.71
2023-04-18T18:43:37.769Z,16.49
2023-04-18T18:46:05.783Z,16.62
2023-04-18T18:48:37.582Z,16.52
2023-04-18T18:51:05.913Z,16.60
2023-04-18T18:53:33.863Z,16.65
2023-04-18T18:56:02.754Z,16.67
2023-04-18T18:58:32.388Z,16.47
2023-04-18T19:01:02.316Z,16.58
2023-04-18T19:03:30.650Z,16.56
2023-04-18T19:05:58.938Z,16.46
2023-04-18T19:08:27.620Z,16.47
2023-04-18T19:10:55.984Z,16.47
2023-04-18T19:13:24.463Z,16.36
2023-04-18T19:15:54.588Z,16.19
2023-04-18T19:18:22.616Z,16.27
2023-04-18T19:20:50.990Z,16.32
2023-04-18T19:23:20.068Z,16.28
2023-04-18T19:25:48.317Z,16.18
2023-04-18T19:28:18.311Z,16.20
2023-04-18T19:30:48.502Z,16.21
2023-04-18T19:33:18.232Z,16.07
2023-04-18T19:35:46.000Z,15.99
2023-04-18T19:38:14.888Z,16.04
2023-04-18T19:40:43.023Z,16.09
2023-04-18T19:43:11.207Z,15.93
2023-04-18T19:45:40.020Z,15.94
2023-04-18T19:48:08.326Z,15.96
2023-04-18T19:50:40.856Z,15.99
2023-04-18T19:53:09.281Z,15.91
2023-04-18T19:55:38.354Z,15.91
2023-04-18T19:58:07.001Z,15.86
2023-04-18T20:00:35.299Z,15.86
2023-04-18T20:03:03.338Z,15.91
2023-04-18T20:05:32.438Z,15.95
2023-04-18T20:08:01.879Z,15.97
2023-04-18T20:10:30.035Z,15.95
2023-04-18T20:12:58.575Z,15.69
2023-04-18T20:15:26.676Z,15.82
2023-04-18T20:17:54.744Z,15.54
2023-04-18T20:20:23.405Z,15.47
2023-04-18T20:22:51.287Z,15.42
2023-04-18T20:25:20.942Z,15.38
2023-04-18T20:27:48.910Z,15.44
2023-04-18T20:30:16.906Z,15.45
2023-04-18T20:32:44.883Z,15.49
2023-04-18T20:35:13.458Z,15.52
2023-04-18T20:37:41.475Z,15.51
2023-04-18T20:40:10.774Z,15.54
2023-04-18T20:42:40.363Z,15.41
2023-04-18T20:45:11.233Z,15.49
2023-04-18T20:47:40.241Z,15.53
2023-04-18T20:50:09.662Z,15.39
2023-04-18T20:52:37.835Z,15.45
2023-04-18T20:55:06.456Z,15.52
2023-04-18T20:57:34.349Z,15.57
2023-04-18T21:00:06.349Z,15.51
2023-04-18T21:02:34.527Z,15.49
2023-04-18T21:05:02.574Z,15.46
2023-04-18T21:07:31.460Z,15.39
2023-04-18T21:09:59.408Z,15.42
2023-04-18T21:12:28.849Z,15.26
2023-04-18T21:14:57.015Z,15.28
2023-04-18T21:17:28.126Z,15.31
2023-04-18T21:19:56.299Z,15.32
2023-04-18T21:22:24.786Z,15.33
2023-04-18T21:24:52.696Z,15.31
2023-04-18T21:27:20.677Z,15.34
2023-04-18T21:29:49.276Z,15.36
2023-04-18T21:32:17.432Z,15.32
2023-04-18T21:34:46.725Z,15.37
2023-04-18T21:37:14.958Z,15.19
2023-04-18T21:39:43.371Z,15.24
2023-04-18T21:42:11.966Z,15.23
2023-04-18T21:44:40.651Z,15.23
2023-04-18T21:47:08.756Z,15.20
2023-04-18T21:49:36.766Z,15.22
2023-04-18T21:52:08.251Z,15.23
2023-04-18T21:54:36.223Z,15.14
2023-04-18T21:57:05.946Z,15.10
2023-04-18T21:59:34.705Z,15.17
2023-04-18T22:02:02.707Z,15.07
2023-04-18T22:04:30.852Z,14.99
2023-04-18T22:06:59.436Z,14.98
2023-04-18T22:09:29.690Z,15.05
2023-04-18T22:11:57.795Z,15.01
2023-04-18T22:14:26.436Z,14.91
2023-04-18T22:16:54.615Z,14.98
2023-04-18T22:19:22.865Z,15.02
2023-04-18T22:21:51.246Z,15.03
2023-04-18T22:24:19.721Z,15.05
2023-04-18T22:26:49.181Z,14.99
2023-04-18T22:29:17.418Z,14.97
2023-04-18T22:31:45.537Z,14.96
2023-04-18T22:34:14.219Z,14.97
2023-04-18T22:36:43.449Z,14.98
2023-04-18T22:39:12.138Z,14.88
2023-04-18T22:41:39.884Z,14.93
2023-04-18T22:44:09.397Z,14.91
2023-04-18T22:46:38.475Z,14.93
2023-04-18T22:49:07.232Z,14.92
2023-04-18T22:51:35.658Z,14.94
2023-04-18T22:54:03.403Z,14.94
2023-04-18T22:56:31.129Z,14.93
2023-04-18T22:58:59.667Z,14.89
2023-04-18T23:01:28.849Z,14.92
2023-04-18T23:03:56.816Z,14.86
2023-04-18T23:06:25.085Z,14.89
2023-04-18T23:08:52.952Z,14.89
2023-04-18T23:11:21.157Z,14.90
2023-04-18T23:13:49.549Z,14.78
2023-04-18T23:16:17.558Z,14.83
2023-04-18T23:18:46.687Z,14.86
2023-04-18T23:21:15.104Z,14.85
2023-04-18T23:23:42.845Z,14.86
2023-04-18T23:26:14.547Z,14.81
2023-04-18T23:28:42.882Z,14.81
2023-04-18T23:31:10.652Z,14.81
2023-04-18T23:33:38.417Z,14.81
2023-04-18T23:36:09.112Z,14.82
2023-04-18T23:38:38.391Z,14.79
2023-04-18T23:41:06.714Z,14.81
2023-04-18T23:43:35.381Z,14.82
2023-04-18T23:46:03.295Z,14.80
2023-04-18T23:48:31.156Z,14.78
2023-04-18T23:50:59.478Z,14.79
2023-04-18T23:53:28.589Z,14.78
2023-04-18T23:55:56.653Z,14.78
2023-04-18T23:58:27.073Z,14.77
